Time;durP1;ratioP1;P1;durP2;ratioP2;P2;SDS_P1;SDS_P2;PMS_P1;PMS_P2;Temp;Humidity;BMP_temperature;BMP_pressure;BME280_temperature;BME280_humidity;BME280_pressure;Samples;Min_cycle;Max_cycle;Signal;HPM_P1;HPM_P2
2022/06/19 00:01:13;;;;;;;7.93;3.33;;;24.60;99.90;;;;;;494032;241;28837;-71
2022/06/19 00:03:15;;;;;;;6.63;3.00;;;24.60;99.90;;;;;;494032;241;28844;-72
2022/06/19 00:05:16;;;;;;;4.53;2.33;;;24.70;99.90;;;;;;494070;241;28785;-71
2022/06/19 00:07:17;;;;;;;7.30;2.60;;;24.60;99.90;;;;;;493989;241;28892;-72
2022/06/19 00:09:18;;;;;;;9.53;2.77;;;24.50;99.90;;;;;;494002;241;29426;-73
2022/06/19 00:11:20;;;;;;;7.77;2.43;;;24.50;99.90;;;;;;494048;241;29351;-71
2022/06/19 00:13:21;;;;;;;5.97;2.43;;;24.50;99.90;;;;;;494051;241;29315;-71
2022/06/19 00:15:22;;;;;;;7.23;2.20;;;24.50;99.90;;;;;;494036;241;28891;-71
2022/06/19 00:17:24;;;;;;;11.67;2.50;;;24.50;99.90;;;;;;494034;241;28838;-71
2022/06/19 00:19:25;;;;;;;4.87;2.60;;;24.50;99.90;;;;;;494065;241;28861;-73
2022/06/19 00:21:26;;;;;;;9.87;2.77;;;24.50;99.90;;;;;;494037;241;28782;-71
2022/06/19 00:23:28;;;;;;;9.83;2.97;;;24.70;99.90;;;;;;494036;241;28831;-72
2022/06/19 00:25:28;;;;;;;11.03;3.00;;;24.80;99.80;;;;;;493899;241;28939;-71
2022/06/19 00:27:30;;;;;;;6.47;2.70;;;24.70;99.80;;;;;;494009;241;28834;-71
2022/06/19 00:29:31;;;;;;;6.00;2.43;;;24.80;99.60;;;;;;494029;241;28950;-73
2022/06/19 00:31:32;;;;;;;15.80;3.07;;;24.90;99.50;;;;;;494031;241;29273;-71
2022/06/19 00:33:33;;;;;;;8.90;2.93;;;24.80;99.90;;;;;;493996;241;29370;-72
2022/06/19 00:35:35;;;;;;;10.73;3.20;;;24.90;99.40;;;;;;494000;241;29273;-71
2022/06/19 00:37:36;;;;;;;6.60;2.90;;;24.90;99.40;;;;;;494016;241;28927;-72
2022/06/19 00:39:42;;;;;;;5.77;2.50;;;24.80;99.70;;;;;;494023;241;28833;-72
2022/06/19 00:41:41;;;;;;;6.30;2.20;;;24.70;99.60;;;;;;493659;241;28823;-71
2022/06/19 00:43:42;;;;;;;7.47;2.50;;;24.70;99.70;;;;;;493925;241;29266;-71
2022/06/19 00:45:49;;;;;;;3.43;2.43;;;24.70;99.90;;;;;;494030;241;29450;-71
2022/06/19 00:47:45;;;;;;;7.67;2.30;;;24.60;99.90;;;;;;493558;241;29255;-71
2022/06/19 00:49:46;;;;;;;4.67;2.23;;;24.60;99.90;;;;;;493992;241;29302;-72
2022/06/19 00:51:47;;;;;;;9.30;2.50;;;24.60;99.90;;;;;;494043;241;28832;-75
2022/06/19 00:53:49;;;;;;;9.33;2.90;;;24.60;99.90;;;;;;494059;241;28847;-71
2022/06/19 00:55:50;;;;;;;5.60;2.40;;;24.70;99.90;;;;;;494035;241;28860;-71
2022/06/19 00:57:51;;;;;;;6.70;2.43;;;24.60;99.90;;;;;;493965;241;28879;-71
2022/06/19 00:59:52;;;;;;;7.93;2.30;;;24.60;99.90;;;;;;494053;241;28842;-72
2022/06/19 01:01:54;;;;;;;8.00;2.70;;;24.60;99.90;;;;;;494058;241;29299;-74
2022/06/19 01:03:55;;;;;;;5.67;2.67;;;24.60;99.90;;;;;;494059;241;28848;-71
2022/06/19 01:05:56;;;;;;;6.73;2.70;;;24.50;99.90;;;;;;494044;241;28846;-72
2022/06/19 01:07:57;;;;;;;5.90;2.30;;;24.60;99.90;;;;;;493995;241;29275;-71
2022/06/19 01:09:59;;;;;;;3.63;2.20;;;24.50;99.90;;;;;;494042;241;29365;-71
2022/06/19 01:12:00;;;;;;;5.90;2.10;;;24.40;99.90;;;;;;494044;241;29516;-71
2022/06/19 01:14:02;;;;;;;9.30;2.90;;;24.40;99.90;;;;;;494053;241;28816;-71
2022/06/19 01:16:02;;;;;;;5.17;2.60;;;24.40;99.90;;;;;;494015;241;28935;-72
2022/06/19 01:18:04;;;;;;;4.90;1.87;;;24.30;99.90;;;;;;494058;241;28793;-71
2022/06/19 01:20:05;;;;;;;4.63;2.47;;;24.30;99.90;;;;;;494043;241;28836;-71
2022/06/19 01:22:06;;;;;;;6.43;2.70;;;24.20;99.90;;;;;;494052;241;29279;-71
2022/06/19 01:24:07;;;;;;;3.30;2.17;;;24.30;99.90;;;;;;494056;241;28799;-71
2022/06/19 01:26:09;;;;;;;4.73;2.00;;;24.20;99.90;;;;;;494038;241;28870;-72
2022/06/19 01:30:30;;;;;;;7.73;2.20;;;24.20;99.90;;;;;;494059;241;29239;-71
2022/06/19 01:32:31;;;;;;;7.60;2.60;;;24.20;99.90;;;;;;494039;241;29441;-71
2022/06/19 01:34:35;;;;;;;7.20;2.73;;;24.30;99.90;;;;;;493987;241;29522;-70
2022/06/19 01:36:34;;;;;;;4.57;2.63;;;24.30;99.90;;;;;;493878;241;28817;-71
2022/06/19 01:38:35;;;;;;;7.33;2.70;;;24.20;99.90;;;;;;493946;241;28814;-72
2022/06/19 01:40:36;;;;;;;4.93;2.53;;;24.20;99.90;;;;;;494075;241;28790;-71
2022/06/19 01:42:37;;;;;;;5.63;3.03;;;24.20;99.90;;;;;;494064;241;28840;-71
2022/06/19 01:44:39;;;;;;;6.00;2.90;;;24.20;99.90;;;;;;494072;241;28813;-71
2022/06/19 01:46:40;;;;;;;7.67;2.30;;;24.30;99.90;;;;;;494054;241;28867;-75
2022/06/19 01:48:41;;;;;;;7.93;3.03;;;24.30;99.90;;;;;;494065;241;28833;-73
2022/06/19 01:50:43;;;;;;;6.03;2.97;;;24.20;99.90;;;;;;494032;241;28868;-71
2022/06/19 01:52:44;;;;;;;6.47;2.60;;;24.30;99.90;;;;;;494030;241;28831;-71
2022/06/19 01:54:45;;;;;;;7.50;2.80;;;24.20;99.90;;;;;;494030;241;30312;-71
2022/06/19 01:56:46;;;;;;;6.83;3.10;;;24.20;99.90;;;;;;494024;241;29339;-71
2022/06/19 01:58:47;;;;;;;4.53;2.50;;;24.10;99.90;;;;;;494028;241;29420;-72
2022/06/19 02:00:49;;;;;;;6.10;2.73;;;24.00;99.90;;;;;;494041;241;28942;-71
2022/06/19 02:02:50;;;;;;;9.93;3.00;;;24.00;99.90;;;;;;494028;241;28942;-71
2022/06/19 02:04:51;;;;;;;5.00;2.57;;;24.10;99.90;;;;;;494040;241;28794;-71
2022/06/19 02:06:53;;;;;;;4.77;2.73;;;24.00;99.90;;;;;;494036;241;28790;-70
2022/06/19 02:08:54;;;;;;;4.00;2.43;;;24.00;99.90;;;;;;494031;241;28823;-72
2022/06/19 02:10:55;;;;;;;7.03;2.50;;;24.00;99.90;;;;;;493868;241;28860;-70
2022/06/19 02:12:56;;;;;;;4.20;2.27;;;23.90;99.90;;;;;;494030;241;28839;-71
2022/06/19 02:14:57;;;;;;;3.73;2.60;;;23.90;99.90;;;;;;494041;241;28830;-73
2022/06/19 02:16:59;;;;;;;2.63;2.20;;;23.90;99.90;;;;;;494044;241;28868;-71
2022/06/19 02:19:00;;;;;;;3.70;2.67;;;23.80;99.90;;;;;;494010;241;29308;-72
2022/06/19 02:21:01;;;;;;;4.67;2.30;;;23.90;99.90;;;;;;493997;241;29232;-71
2022/06/19 02:23:05;;;;;;;9.87;3.40;;;23.80;99.90;;;;;;494027;241;29310;-71
2022/06/19 02:25:04;;;;;;;8.80;3.40;;;23.90;99.90;;;;;;493837;241;29506;-74
2022/06/19 02:27:05;;;;;;;5.80;2.60;;;23.80;99.90;;;;;;494039;241;28811;-71
2022/06/19 02:29:09;;;;;;;6.70;2.90;;;23.70;99.90;;;;;;493936;241;28958;-72
2022/06/19 02:31:07;;;;;;;5.73;2.70;;;23.60;99.90;;;;;;493848;241;28880;-71
2022/06/19 02:33:09;;;;;;;3.80;2.40;;;23.70;99.90;;;;;;494044;241;28899;-71
2022/06/19 02:35:10;;;;;;;5.87;3.10;;;23.70;99.90;;;;;;494029;241;29287;-71
2022/06/19 02:37:12;;;;;;;4.60;2.30;;;23.70;99.90;;;;;;494022;241;28800;-71
2022/06/19 02:39:12;;;;;;;3.67;2.23;;;23.60;99.90;;;;;;494028;241;28918;-71
2022/06/19 02:41:14;;;;;;;9.17;2.83;;;23.60;99.90;;;;;;494019;241;28875;-71
2022/06/19 02:43:15;;;;;;;8.17;2.97;;;23.60;99.90;;;;;;493972;241;29399;-70
2022/06/19 02:45:16;;;;;;;5.20;2.50;;;23.60;99.90;;;;;;494048;241;29330;-73
2022/06/19 02:47:17;;;;;;;6.20;2.70;;;23.50;99.90;;;;;;494051;241;29338;-71
2022/06/19 02:49:19;;;;;;;4.83;2.80;;;23.50;99.90;;;;;;494033;241;29449;-72
2022/06/19 02:51:20;;;;;;;8.17;3.13;;;23.60;99.90;;;;;;494017;241;28900;-72
2022/06/19 02:53:21;;;;;;;8.03;2.93;;;23.70;99.90;;;;;;494008;241;28819;-72
2022/06/19 02:55:22;;;;;;;5.50;2.63;;;23.70;99.90;;;;;;494062;241;28837;-72
2022/06/19 02:57:24;;;;;;;5.57;2.90;;;23.70;99.90;;;;;;494022;241;28805;-71
2022/06/19 02:59:25;;;;;;;7.00;4.00;;;23.80;99.90;;;;;;494056;241;28839;-71
2022/06/19 03:01:26;;;;;;;5.00;2.70;;;23.80;99.90;;;;;;494037;241;28915;-71
2022/06/19 03:03:27;;;;;;;6.13;2.83;;;23.70;99.90;;;;;;494051;241;28792;-71
2022/06/19 03:05:29;;;;;;;8.10;2.93;;;23.70;99.90;;;;;;494016;241;28936;-72
2022/06/19 03:07:30;;;;;;;4.87;2.83;;;23.60;99.90;;;;;;494042;241;29268;-71
2022/06/19 03:09:31;;;;;;;4.63;3.20;;;23.60;99.90;;;;;;494021;241;29366;-71
2022/06/19 03:11:32;;;;;;;6.27;3.27;;;23.70;99.90;;;;;;494046;241;30051;-71
2022/06/19 03:13:34;;;;;;;7.50;3.47;;;23.80;99.90;;;;;;494047;241;29266;-72
2022/06/19 03:15:35;;;;;;;10.33;3.13;;;23.90;99.90;;;;;;494067;241;28930;-71
2022/06/19 03:17:36;;;;;;;7.00;3.43;;;24.00;99.90;;;;;;494033;241;28798;-71
2022/06/19 03:19:37;;;;;;;8.17;3.83;;;24.10;99.90;;;;;;494055;241;28820;-71
2022/06/19 03:21:39;;;;;;;7.70;4.10;;;24.20;99.90;;;;;;494015;241;28830;-71
2022/06/19 03:23:40;;;;;;;7.40;3.90;;;24.10;99.90;;;;;;493974;241;28824;-71
2022/06/19 03:25:41;;;;;;;5.80;3.40;;;24.10;99.90;;;;;;494045;241;28866;-72
2022/06/19 03:27:42;;;;;;;6.90;3.60;;;24.20;99.90;;;;;;494044;241;28785;-71
2022/06/19 03:29:44;;;;;;;6.53;3.97;;;24.20;99.90;;;;;;494018;241;28877;-72
2022/06/19 03:31:45;;;;;;;4.73;3.80;;;24.10;99.90;;;;;;494021;241;29277;-71
2022/06/19 03:33:46;;;;;;;4.17;3.57;;;24.20;99.90;;;;;;494042;241;29406;-71
2022/06/19 03:35:47;;;;;;;6.17;4.30;;;24.10;99.90;;;;;;494054;241;29451;-73
2022/06/19 03:37:49;;;;;;;7.63;4.13;;;24.20;99.90;;;;;;494010;241;29425;-71
2022/06/19 03:39:51;;;;;;;4.50;3.43;;;24.20;99.90;;;;;;494023;241;28853;-72
2022/06/19 03:41:51;;;;;;;6.47;3.80;;;24.20;99.90;;;;;;494019;241;28787;-71
2022/06/19 03:43:52;;;;;;;7.33;3.67;;;24.10;99.90;;;;;;493989;241;28884;-71
2022/06/19 03:45:54;;;;;;;4.40;3.50;;;24.10;99.90;;;;;;494040;241;28841;-73
2022/06/19 03:47:55;;;;;;;5.23;3.73;;;24.20;99.90;;;;;;494010;241;28797;-72
2022/06/19 03:49:56;;;;;;;8.10;4.13;;;24.20;99.90;;;;;;493986;241;28914;-72
2022/06/19 03:51:57;;;;;;;4.30;3.47;;;24.10;99.90;;;;;;494035;241;28830;-71
2022/06/19 03:53:59;;;;;;;6.13;3.80;;;24.10;99.90;;;;;;494042;241;28845;-72
2022/06/19 03:56:00;;;;;;;3.80;3.50;;;24.10;99.90;;;;;;494007;241;28843;-72
2022/06/19 03:58:01;;;;;;;6.60;4.27;;;24.10;99.90;;;;;;494026;241;29330;-71
2022/06/19 04:00:02;;;;;;;7.07;3.70;;;24.10;99.90;;;;;;493937;241;29369;-72
2022/06/19 04:02:04;;;;;;;4.43;3.60;;;24.20;99.90;;;;;;494008;241;29499;-72
2022/06/19 04:04:05;;;;;;;4.23;3.83;;;24.10;99.90;;;;;;493981;241;28782;-72
2022/06/19 04:06:06;;;;;;;4.87;4.10;;;24.10;99.90;;;;;;494027;241;28848;-71
2022/06/19 04:08:08;;;;;;;6.50;4.27;;;24.10;99.90;;;;;;494013;241;28785;-71
2022/06/19 04:10:09;;;;;;;4.80;3.90;;;24.20;99.90;;;;;;493991;241;28846;-71
2022/06/19 04:12:10;;;;;;;6.33;4.67;;;24.20;99.90;;;;;;494013;241;28805;-72
2022/06/19 04:14:11;;;;;;;6.93;4.77;;;24.30;99.90;;;;;;494010;241;28814;-72
2022/06/19 04:16:13;;;;;;;5.43;4.20;;;24.30;99.90;;;;;;494012;241;28922;-73
2022/06/19 04:18:14;;;;;;;5.80;5.03;;;24.30;99.90;;;;;;494002;241;28810;-72
2022/06/19 04:20:15;;;;;;;6.20;4.73;;;24.40;99.90;;;;;;494022;241;28838;-72
2022/06/19 04:22:16;;;;;;;5.57;4.87;;;24.40;99.90;;;;;;494039;241;30054;-71
2022/06/19 04:24:19;;;;;;;8.30;5.20;;;24.40;99.90;;;;;;494034;241;29272;-72
2022/06/19 04:26:19;;;;;;;13.73;5.20;;;24.40;99.90;;;;;;493913;241;29332;-73
2022/06/19 04:28:22;;;;;;;8.87;5.30;;;24.50;99.90;;;;;;494038;241;28813;-72
2022/06/19 04:30:21;;;;;;;10.13;6.10;;;24.60;99.90;;;;;;493948;241;28810;-72
2022/06/19 04:32:23;;;;;;;10.10;5.67;;;24.60;99.90;;;;;;494083;241;28791;-72
2022/06/19 04:34:24;;;;;;;5.93;5.40;;;24.60;99.90;;;;;;494048;241;28795;-72
2022/06/19 04:36:25;;;;;;;6.33;5.73;;;24.60;99.90;;;;;;494057;241;28929;-73
2022/06/19 04:38:28;;;;;;;7.23;5.60;;;24.70;99.90;;;;;;494018;241;28906;-71
2022/06/19 04:40:28;;;;;;;5.50;5.00;;;24.60;99.90;;;;;;493898;241;28905;-72
2022/06/19 04:42:29;;;;;;;7.20;5.70;;;24.60;99.90;;;;;;494033;241;28915;-75
2022/06/19 04:44:30;;;;;;;7.50;5.90;;;24.60;99.90;;;;;;494045;241;29237;-72
2022/06/19 04:46:31;;;;;;;8.23;5.63;;;24.60;99.90;;;;;;493977;241;29502;-73
2022/06/19 04:48:33;;;;;;;6.80;6.10;;;24.60;99.90;;;;;;494052;241;29385;-72
2022/06/19 04:50:34;;;;;;;6.30;5.70;;;24.60;99.90;;;;;;494069;241;28857;-72
2022/06/19 04:52:35;;;;;;;5.97;5.47;;;24.50;99.90;;;;;;494042;241;28824;-71
2022/06/19 04:54:36;;;;;;;7.03;5.93;;;24.60;99.90;;;;;;494101;239;28789;-72
2022/06/19 04:56:38;;;;;;;5.70;5.20;;;24.70;99.90;;;;;;494047;241;28959;-72
2022/06/19 04:58:39;;;;;;;6.80;6.20;;;24.70;99.90;;;;;;494027;241;28850;-71
2022/06/19 05:00:40;;;;;;;13.77;7.10;;;24.70;99.90;;;;;;494057;241;28865;-72
2022/06/19 05:02:41;;;;;;;7.90;5.87;;;24.70;99.90;;;;;;494047;241;28846;-73
2022/06/19 05:04:43;;;;;;;7.13;5.93;;;24.80;99.90;;;;;;494061;241;28805;-72
2022/06/19 05:06:44;;;;;;;6.73;6.03;;;24.80;99.90;;;;;;494039;241;28844;-72
2022/06/19 05:08:45;;;;;;;8.63;6.37;;;24.80;99.90;;;;;;494051;241;29239;-72
2022/06/19 05:10:46;;;;;;;9.40;6.60;;;24.90;99.90;;;;;;494049;241;29307;-72
2022/06/19 05:12:48;;;;;;;6.67;5.97;;;25.00;99.90;;;;;;494057;241;29529;-72
2022/06/19 05:14:49;;;;;;;6.53;5.90;;;24.90;99.90;;;;;;494056;241;28948;-72
2022/06/19 05:16:50;;;;;;;6.23;5.63;;;24.90;99.90;;;;;;494048;241;28952;-73
2022/06/19 05:18:51;;;;;;;6.83;5.20;;;24.90;99.90;;;;;;494012;241;28786;-72
2022/06/19 05:20:53;;;;;;;7.53;6.30;;;24.90;99.90;;;;;;494048;241;28838;-72
2022/06/19 05:22:54;;;;;;;7.67;5.53;;;24.90;99.90;;;;;;493961;241;28811;-72
2022/06/19 05:24:55;;;;;;;6.30;5.70;;;25.00;99.90;;;;;;494071;241;29205;-72
2022/06/19 05:26:56;;;;;;;6.13;5.53;;;25.00;99.90;;;;;;494048;241;28873;-72
2022/06/19 05:28:58;;;;;;;8.00;5.70;;;25.00;99.90;;;;;;494026;241;28799;-72
2022/06/19 05:30:59;;;;;;;7.63;5.60;;;25.00;99.90;;;;;;494030;241;28924;-72
2022/06/19 05:33:00;;;;;;;7.80;5.50;;;25.00;99.90;;;;;;494007;241;29622;-71
2022/06/19 05:35:01;;;;;;;7.13;5.40;;;25.00;99.90;;;;;;494045;241;29258;-72
2022/06/19 05:37:03;;;;;;;6.00;5.20;;;25.00;99.90;;;;;;493966;241;29456;-73
2022/06/19 05:39:04;;;;;;;5.27;4.70;;;25.00;99.90;;;;;;494043;241;28791;-72
2022/06/19 05:41:05;;;;;;;6.93;4.80;;;25.00;99.90;;;;;;494050;241;28833;-72
2022/06/19 05:43:06;;;;;;;10.00;5.70;;;25.10;99.90;;;;;;494047;241;28901;-72
2022/06/19 05:45:08;;;;;;;6.83;5.47;;;25.20;99.90;;;;;;494058;241;28811;-73
2022/06/19 05:47:09;;;;;;;8.13;5.50;;;25.20;99.90;;;;;;494039;241;28947;-73
2022/06/19 05:49:10;;;;;;;6.00;5.50;;;25.20;99.90;;;;;;494039;241;28799;-72
2022/06/19 05:51:11;;;;;;;8.37;6.03;;;25.30;99.90;;;;;;494049;241;28833;-72
2022/06/19 05:53:13;;;;;;;9.20;6.27;;;25.30;99.90;;;;;;494033;241;28889;-72
2022/06/19 05:55:14;;;;;;;8.03;6.10;;;25.30;99.90;;;;;;494048;241;28876;-72
2022/06/19 05:57:15;;;;;;;7.43;6.03;;;25.30;99.90;;;;;;494014;241;29413;-72
2022/06/19 05:59:16;;;;;;;5.30;4.80;;;25.30;99.90;;;;;;493636;241;29363;-72
2022/06/19 06:01:18;;;;;;;10.20;5.63;;;25.30;99.90;;;;;;493628;241;29331;-72
2022/06/19 06:03:19;;;;;;;6.73;5.30;;;25.40;99.90;;;;;;494062;241;28828;-72
2022/06/19 06:05:20;;;;;;;6.20;5.70;;;25.40;99.90;;;;;;494074;241;28887;-72
2022/06/19 06:07:21;;;;;;;6.27;4.90;;;25.40;99.90;;;;;;494066;241;28865;-72
2022/06/19 06:09:23;;;;;;;5.80;5.10;;;25.40;99.90;;;;;;494072;241;28889;-72
2022/06/19 06:11:24;;;;;;;5.23;4.83;;;25.50;99.90;;;;;;494048;241;28828;-73
2022/06/19 06:13:25;;;;;;;5.80;5.30;;;25.50;99.90;;;;;;494056;241;29249;-73
2022/06/19 06:15:26;;;;;;;9.40;5.07;;;25.50;99.90;;;;;;494061;241;28881;-71
2022/06/19 06:17:28;;;;;;;6.53;4.90;;;25.50;99.90;;;;;;494010;241;28868;-72
2022/06/19 06:19:29;;;;;;;7.33;5.27;;;25.50;99.90;;;;;;494023;241;29239;-72
2022/06/19 06:21:30;;;;;;;8.20;5.70;;;25.60;99.90;;;;;;494056;241;29374;-71
2022/06/19 06:23:31;;;;;;;8.77;5.40;;;25.60;99.90;;;;;;494030;241;29504;-73
2022/06/19 06:25:34;;;;;;;5.60;5.00;;;25.70;99.90;;;;;;494067;241;29354;-72
2022/06/19 06:27:34;;;;;;;6.13;4.80;;;25.70;99.90;;;;;;493975;241;28953;-72
2022/06/19 06:29:35;;;;;;;6.70;5.37;;;25.70;99.90;;;;;;494053;241;28871;-72
2022/06/19 06:31:36;;;;;;;6.40;5.13;;;25.80;99.90;;;;;;494024;241;28837;-72
2022/06/19 06:33:38;;;;;;;9.07;5.20;;;25.80;99.90;;;;;;494053;241;28954;-75
2022/06/19 06:35:39;;;;;;;5.17;4.67;;;25.80;99.90;;;;;;494061;241;28851;-72
2022/06/19 06:37:40;;;;;;;6.00;5.40;;;25.90;99.90;;;;;;494011;241;28904;-72
2022/06/19 06:39:41;;;;;;;6.57;5.80;;;25.90;99.90;;;;;;494053;241;28807;-72
2022/06/19 06:41:43;;;;;;;10.47;5.10;;;25.90;99.90;;;;;;494022;241;28840;-74
2022/06/19 06:43:44;;;;;;;6.60;6.00;;;25.90;99.90;;;;;;494042;241;29395;-74
2022/06/19 06:45:45;;;;;;;5.53;5.03;;;25.90;99.90;;;;;;494037;241;29248;-72
2022/06/19 06:47:46;;;;;;;6.50;5.93;;;25.90;99.90;;;;;;494002;241;29395;-73
2022/06/19 06:49:48;;;;;;;7.27;4.87;;;26.00;99.90;;;;;;494039;241;28898;-72
2022/06/19 06:51:49;;;;;;;8.00;4.57;;;26.00;99.90;;;;;;494031;241;28909;-73
2022/06/19 06:53:50;;;;;;;6.07;5.30;;;26.10;99.90;;;;;;494049;237;28976;-71
2022/06/19 06:55:51;;;;;;;5.33;4.87;;;26.10;99.90;;;;;;494042;241;28795;-72
2022/06/19 06:57:53;;;;;;;5.67;5.17;;;26.10;99.90;;;;;;494033;241;28845;-73
2022/06/19 06:59:54;;;;;;;6.00;5.30;;;26.20;99.90;;;;;;494017;241;28845;-72
2022/06/19 07:01:55;;;;;;;9.83;6.00;;;26.20;99.90;;;;;;494040;241;28834;-72
2022/06/19 07:03:56;;;;;;;5.37;4.87;;;26.20;99.90;;;;;;494056;241;28844;-75
2022/06/19 07:05:58;;;;;;;5.63;5.13;;;26.30;99.90;;;;;;494027;241;28821;-72
2022/06/19 07:07:59;;;;;;;7.57;5.60;;;26.30;99.90;;;;;;494050;241;29418;-72
2022/06/19 07:10:00;;;;;;;6.87;5.17;;;26.30;99.90;;;;;;494039;241;29270;-72
2022/06/19 07:12:02;;;;;;;5.33;4.93;;;26.40;99.90;;;;;;494043;241;29323;-72
2022/06/19 07:14:03;;;;;;;5.53;4.90;;;26.40;99.90;;;;;;494025;241;30039;-72
2022/06/19 07:16:04;;;;;;;16.40;5.60;;;26.40;99.90;;;;;;494031;241;28892;-75
2022/06/19 07:18:05;;;;;;;6.53;5.80;;;26.40;99.90;;;;;;494059;241;28834;-73
2022/06/19 07:20:06;;;;;;;11.13;5.97;;;26.50;99.90;;;;;;494034;241;28949;-72
2022/06/19 07:22:08;;;;;;;10.10;5.70;;;26.50;99.90;;;;;;494019;241;28934;-72
2022/06/19 07:24:09;;;;;;;7.43;5.40;;;26.50;99.90;;;;;;493983;241;29340;-72
2022/06/19 07:26:10;;;;;;;6.40;5.40;;;26.60;99.90;;;;;;494034;241;28823;-72
2022/06/19 07:28:11;;;;;;;6.97;5.20;;;26.70;99.90;;;;;;494042;241;28834;-72
2022/06/19 07:30:13;;;;;;;6.43;5.40;;;26.80;99.90;;;;;;494035;241;29248;-72
2022/06/19 07:32:14;;;;;;;7.07;5.87;;;26.80;99.90;;;;;;494006;241;29432;-73
2022/06/19 07:34:15;;;;;;;9.97;5.63;;;26.80;99.90;;;;;;494024;241;29250;-72
2022/06/19 07:36:16;;;;;;;6.20;4.63;;;26.80;99.90;;;;;;494020;241;29259;-73
2022/06/19 07:38:18;;;;;;;7.97;5.40;;;26.80;99.90;;;;;;494029;241;28846;-73
2022/06/19 07:40:19;;;;;;;6.13;5.53;;;26.90;99.90;;;;;;494040;241;28833;-72
2022/06/19 07:42:20;;;;;;;7.33;5.60;;;26.90;99.90;;;;;;494031;241;28921;-72
2022/06/19 07:44:22;;;;;;;6.97;5.50;;;27.00;99.90;;;;;;494014;241;28795;-72
2022/06/19 07:46:23;;;;;;;6.17;5.57;;;27.00;99.90;;;;;;494031;241;28839;-72
2022/06/19 07:50:43;;;;;;;7.53;5.40;;;27.00;99.90;;;;;;494021;241;28802;-72
2022/06/19 07:52:45;;;;;;;6.70;5.50;;;27.00;99.90;;;;;;494029;241;28827;-72
2022/06/19 07:54:46;;;;;;;10.33;5.87;;;27.00;99.90;;;;;;494036;241;28817;-73
2022/06/19 07:56:47;;;;;;;7.00;5.80;;;27.10;99.90;;;;;;494029;241;28798;-72
2022/06/19 07:58:48;;;;;;;6.23;5.63;;;27.10;99.90;;;;;;493874;241;28846;-73
2022/06/19 08:00:50;;;;;;;7.80;5.30;;;27.10;99.90;;;;;;494018;241;28850;-72
2022/06/19 08:02:51;;;;;;;8.10;5.23;;;26.90;99.90;;;;;;494033;241;28853;-73
2022/06/19 08:04:52;;;;;;;6.97;5.10;;;27.00;99.90;;;;;;494040;241;28827;-72
2022/06/19 08:06:53;;;;;;;9.13;5.47;;;27.00;99.90;;;;;;494030;241;29252;-72
2022/06/19 08:08:55;;;;;;;6.00;5.40;;;26.90;99.90;;;;;;494038;241;29366;-73
2022/06/19 08:10:56;;;;;;;8.80;5.27;;;27.00;99.90;;;;;;494030;241;29308;-72
2022/06/19 08:12:57;;;;;;;10.33;5.73;;;26.90;99.90;;;;;;494035;241;28835;-73
2022/06/19 08:14:58;;;;;;;12.17;5.83;;;27.10;99.90;;;;;;494052;241;28913;-71
2022/06/19 08:17:00;;;;;;;5.50;5.00;;;27.20;99.90;;;;;;494044;241;28920;-72
2022/06/19 08:19:01;;;;;;;7.10;5.37;;;27.20;99.90;;;;;;494056;241;28852;-74
2022/06/19 08:21:02;;;;;;;6.77;5.97;;;27.20;99.90;;;;;;494038;241;28928;-72
2022/06/19 08:23:05;;;;;;;6.93;5.47;;;27.40;99.90;;;;;;494056;241;28865;-72
2022/06/19 08:25:05;;;;;;;5.40;4.90;;;27.30;99.90;;;;;;493938;241;28865;-72
2022/06/19 08:27:06;;;;;;;8.63;5.33;;;27.30;99.90;;;;;;493907;241;28794;-72
2022/06/19 08:29:07;;;;;;;9.90;6.00;;;27.30;99.90;;;;;;493975;241;29390;-74
2022/06/19 08:31:09;;;;;;;8.90;5.87;;;27.30;99.90;;;;;;494077;238;29433;-72
2022/06/19 08:33:10;;;;;;;9.57;6.10;;;27.40;99.90;;;;;;494067;241;29321;-74
2022/06/19 08:35:11;;;;;;;8.07;6.03;;;27.30;99.90;;;;;;494078;241;29283;-72
2022/06/19 08:37:12;;;;;;;8.53;5.40;;;27.40;99.90;;;;;;494049;241;28961;-72
2022/06/19 08:39:14;;;;;;;10.63;6.73;;;27.40;99.90;;;;;;494071;241;28847;-74
2022/06/19 08:41:15;;;;;;;5.97;4.97;;;27.50;99.90;;;;;;494076;241;28942;-72
2022/06/19 08:43:16;;;;;;;5.90;5.10;;;27.70;99.90;;;;;;494049;241;28859;-73
2022/06/19 08:45:17;;;;;;;6.03;5.50;;;27.60;99.90;;;;;;494063;241;28802;-72
2022/06/19 08:47:19;;;;;;;7.90;5.63;;;27.70;99.90;;;;;;494055;241;28940;-72
2022/06/19 08:49:20;;;;;;;7.30;4.77;;;27.60;99.90;;;;;;494066;241;28858;-74
2022/06/19 08:51:21;;;;;;;5.87;5.33;;;27.60;99.90;;;;;;494047;241;28916;-72
2022/06/19 08:53:22;;;;;;;11.53;5.70;;;27.80;99.90;;;;;;493996;241;29334;-73
2022/06/19 08:55:24;;;;;;;6.27;5.10;;;27.80;99.90;;;;;;494058;241;29253;-72
2022/06/19 08:57:25;;;;;;;7.53;5.37;;;27.90;99.90;;;;;;494008;241;29302;-73
2022/06/19 08:59:26;;;;;;;5.63;5.03;;;27.90;99.90;;;;;;494065;241;28853;-75
2022/06/19 09:01:27;;;;;;;8.17;4.97;;;27.90;99.90;;;;;;494057;241;28832;-72
2022/06/19 09:03:29;;;;;;;6.73;5.23;;;27.90;99.90;;;;;;494041;241;28928;-72
2022/06/19 09:05:44;;;;;;;5.30;4.90;;;27.90;99.90;;;;;;494046;241;28845;-72
2022/06/19 09:07:40;;;;;;;5.93;4.97;;;27.90;99.90;;;;;;493595;241;28831;-74
2022/06/19 09:09:41;;;;;;;7.80;5.30;;;27.90;99.90;;;;;;494031;241;28950;-72
2022/06/19 09:11:43;;;;;;;9.37;5.23;;;27.90;99.90;;;;;;494044;241;29302;-72
2022/06/19 09:13:44;;;;;;;13.53;5.10;;;28.00;99.90;;;;;;494000;241;29273;-72
2022/06/19 09:15:45;;;;;;;6.03;5.43;;;28.00;99.90;;;;;;493877;241;29365;-72
2022/06/19 09:17:46;;;;;;;6.50;5.40;;;28.00;99.90;;;;;;494041;241;28855;-72
2022/06/19 09:19:48;;;;;;;6.60;5.20;;;28.00;99.90;;;;;;494041;241;28897;-72
2022/06/19 09:21:49;;;;;;;6.43;4.97;;;28.00;99.90;;;;;;494045;241;28831;-72
2022/06/19 09:23:50;;;;;;;6.73;5.63;;;28.00;99.90;;;;;;494059;241;28931;-72
2022/06/19 09:25:51;;;;;;;6.10;5.50;;;28.00;99.90;;;;;;494034;241;28818;-72
2022/06/19 09:27:53;;;;;;;8.87;6.40;;;28.00;99.90;;;;;;494038;241;29234;-74
2022/06/19 09:29:54;;;;;;;7.40;4.97;;;28.20;99.90;;;;;;494027;241;28827;-72
2022/06/19 09:31:55;;;;;;;8.60;5.53;;;28.20;99.90;;;;;;494029;241;28919;-73
2022/06/19 09:33:56;;;;;;;6.47;4.80;;;28.30;99.90;;;;;;494031;241;28850;-72
2022/06/19 09:35:58;;;;;;;8.67;5.20;;;28.20;99.90;;;;;;493994;241;29274;-73
2022/06/19 09:37:59;;;;;;;6.47;5.43;;;28.30;99.90;;;;;;494031;241;29399;-75
2022/06/19 09:40:00;;;;;;;6.70;4.70;;;28.10;99.90;;;;;;494028;241;29505;-72
2022/06/19 09:42:01;;;;;;;6.33;5.20;;;28.00;99.90;;;;;;493907;241;28906;-73
2022/06/19 09:44:03;;;;;;;5.50;5.00;;;28.10;99.90;;;;;;494045;241;28790;-72
2022/06/19 09:46:04;;;;;;;10.63;5.30;;;28.20;99.90;;;;;;493945;241;28806;-72
2022/06/19 09:48:05;;;;;;;7.47;6.17;;;28.40;99.90;;;;;;494045;241;28859;-74
2022/06/19 09:50:06;;;;;;;8.07;5.90;;;28.40;99.90;;;;;;494043;241;28809;-72
2022/06/19 09:52:08;;;;;;;6.80;5.37;;;28.40;99.90;;;;;;494020;241;28849;-73
2022/06/19 09:54:09;;;;;;;5.60;5.00;;;28.30;99.90;;;;;;494045;241;28858;-72
2022/06/19 09:56:10;;;;;;;6.13;4.70;;;28.40;99.90;;;;;;494007;241;28844;-72
2022/06/19 09:58:12;;;;;;;9.00;5.37;;;28.40;99.90;;;;;;494022;241;29303;-73
2022/06/19 10:00:13;;;;;;;8.07;5.80;;;28.50;99.90;;;;;;493963;241;29415;-72
2022/06/19 10:02:14;;;;;;;7.30;5.60;;;28.50;99.90;;;;;;493950;241;29387;-72
2022/06/19 10:04:15;;;;;;;5.27;4.60;;;28.60;99.90;;;;;;494050;241;29378;-73
2022/06/19 10:06:17;;;;;;;6.80;5.67;;;28.60;99.90;;;;;;493973;241;28892;-72
2022/06/19 10:08:18;;;;;;;10.07;5.10;;;28.50;99.90;;;;;;494060;239;28927;-73
2022/06/19 10:10:19;;;;;;;6.33;4.77;;;28.40;99.90;;;;;;493996;241;28876;-72
2022/06/19 10:12:20;;;;;;;9.80;5.47;;;28.60;99.90;;;;;;494048;241;28817;-72
2022/06/19 10:14:21;;;;;;;10.33;5.80;;;28.70;99.90;;;;;;494114;241;29205;-75
2022/06/19 10:16:23;;;;;;;10.33;6.07;;;28.50;99.90;;;;;;494087;241;28893;-72
2022/06/19 10:18:24;;;;;;;6.60;5.47;;;28.40;99.90;;;;;;494074;241;29303;-73
2022/06/19 10:20:25;;;;;;;5.67;5.10;;;28.50;99.90;;;;;;493886;241;29311;-72
2022/06/19 10:22:26;;;;;;;6.00;5.37;;;28.60;99.90;;;;;;494037;241;29395;-72
2022/06/19 10:24:28;;;;;;;7.40;5.10;;;28.70;99.90;;;;;;494073;241;29345;-73
2022/06/19 10:26:29;;;;;;;9.20;5.33;;;28.70;99.90;;;;;;494034;241;28947;-72
2022/06/19 10:28:31;;;;;;;8.20;5.30;;;28.70;99.90;;;;;;494055;241;28838;-72
2022/06/19 10:30:31;;;;;;;6.00;5.43;;;28.70;99.90;;;;;;493958;241;28795;-72
2022/06/19 10:32:33;;;;;;;10.33;4.70;;;28.60;99.90;;;;;;494033;241;28927;-72
2022/06/19 10:34:34;;;;;;;7.20;5.33;;;28.80;99.90;;;;;;494062;241;28834;-75